sensor_id;sensor_type;location;lat;lon;timestamp;temperature;humidity
7900;DHT22;3995;50.856;4.404;2022-10-31T00:00:49;19.60;61.50
7900;DHT22;3995;50.856;4.404;2022-10-31T00:03:17;19.60;61.50
7900;DHT22;3995;50.856;4.404;2022-10-31T00:05:45;19.60;61.40
7900;DHT22;3995;50.856;4.404;2022-10-31T00:08:14;19.60;61.40
7900;DHT22;3995;50.856;4.404;2022-10-31T00:10:42;19.60;61.40
7900;DHT22;3995;50.856;4.404;2022-10-31T00:13:10;19.50;61.30
7900;DHT22;3995;50.856;4.404;2022-10-31T00:15:39;19.60;61.40
7900;DHT22;3995;50.856;4.404;2022-10-31T00:18:07;19.60;61.30
7900;DHT22;3995;50.856;4.404;2022-10-31T00:20:35;19.50;61.30
7900;DHT22;3995;50.856;4.404;2022-10-31T00:23:03;19.50;61.30
7900;DHT22;3995;50.856;4.404;2022-10-31T00:25:35;19.50;61.30
7900;DHT22;3995;50.856;4.404;2022-10-31T00:28:03;19.50;61.30
7900;DHT22;3995;50.856;4.404;2022-10-31T00:30:30;19.50;61.30
7900;DHT22;3995;50.856;4.404;2022-10-31T00:32:58;19.50;61.40
7900;DHT22;3995;50.856;4.404;2022-10-31T00:35:25;19.50;61.40
7900;DHT22;3995;50.856;4.404;2022-10-31T00:37:54;19.50;61.40
7900;DHT22;3995;50.856;4.404;2022-10-31T00:40:22;19.50;61.30
7900;DHT22;3995;50.856;4.404;2022-10-31T00:42:50;19.40;61.20
7900;DHT22;3995;50.856;4.404;2022-10-31T00:45:17;19.40;61.20
7900;DHT22;3995;50.856;4.404;2022-10-31T00:47:44;19.40;61.30
7900;DHT22;3995;50.856;4.404;2022-10-31T00:50:12;19.40;61.30
7900;DHT22;3995;50.856;4.404;2022-10-31T00:52:39;19.40;61.30
7900;DHT22;3995;50.856;4.404;2022-10-31T00:55:07;19.30;61.30
7900;DHT22;3995;50.856;4.404;2022-10-31T00:57:34;19.30;61.30
7900;DHT22;3995;50.856;4.404;2022-10-31T01:00:03;19.30;61.30
7900;DHT22;3995;50.856;4.404;2022-10-31T01:02:30;19.30;61.20
7900;DHT22;3995;50.856;4.404;2022-10-31T01:04:57;19.30;61.30
7900;DHT22;3995;50.856;4.404;2022-10-31T01:07:25;19.30;61.30
7900;DHT22;3995;50.856;4.404;2022-10-31T01:09:52;19.30;61.30
7900;DHT22;3995;50.856;4.404;2022-10-31T01:12:19;19.30;61.30
7900;DHT22;3995;50.856;4.404;2022-10-31T01:14:46;19.20;61.20
7900;DHT22;3995;50.856;4.404;2022-10-31T01:17:15;19.20;61.20
7900;DHT22;3995;50.856;4.404;2022-10-31T01:19:42;19.20;61.10
7900;DHT22;3995;50.856;4.404;2022-10-31T01:22:09;19.20;61.20
7900;DHT22;3995;50.856;4.404;2022-10-31T01:24:37;19.20;61.20
7900;DHT22;3995;50.856;4.404;2022-10-31T01:27:04;19.20;61.20
7900;DHT22;3995;50.856;4.404;2022-10-31T01:29:31;19.20;61.10
7900;DHT22;3995;50.856;4.404;2022-10-31T01:31:58;19.20;61.10
7900;DHT22;3995;50.856;4.404;2022-10-31T01:34:27;19.20;61.00
7900;DHT22;3995;50.856;4.404;2022-10-31T01:36:54;19.20;61.10
7900;DHT22;3995;50.856;4.404;2022-10-31T01:39:22;19.20;61.10
7900;DHT22;3995;50.856;4.404;2022-10-31T01:41:50;19.20;61.00
7900;DHT22;3995;50.856;4.404;2022-10-31T01:44:53;19.10;60.90
7900;DHT22;3995;50.856;4.404;2022-10-31T01:47:26;19.20;60.80
7900;DHT22;3995;50.856;4.404;2022-10-31T01:49:58;19.10;61.10
7900;DHT22;3995;50.856;4.404;2022-10-31T01:52:28;19.10;61.10
7900;DHT22;3995;50.856;4.404;2022-10-31T01:54:59;19.10;61.00
7900;DHT22;3995;50.856;4.404;2022-10-31T01:57:27;19.10;61.00
7900;DHT22;3995;50.856;4.404;2022-10-31T01:59:58;19.10;61.00
7900;DHT22;3995;50.856;4.404;2022-10-31T02:02:27;19.10;60.90
7900;DHT22;3995;50.856;4.404;2022-10-31T02:04:59;19.00;60.80
7900;DHT22;3995;50.856;4.404;2022-10-31T02:07:30;19.00;60.80
7900;DHT22;3995;50.856;4.404;2022-10-31T02:09:59;19.00;60.80
7900;DHT22;3995;50.856;4.404;2022-10-31T02:12:28;19.00;61.00
7900;DHT22;3995;50.856;4.404;2022-10-31T02:14:56;19.00;61.00
7900;DHT22;3995;50.856;4.404;2022-10-31T02:17:24;19.00;61.10
7900;DHT22;3995;50.856;4.404;2022-10-31T02:19:57;18.90;61.00
7900;DHT22;3995;50.856;4.404;2022-10-31T02:22:34;18.90;61.00
7900;DHT22;3995;50.856;4.404;2022-10-31T02:25:21;18.90;61.10
7900;DHT22;3995;50.856;4.404;2022-10-31T02:28:10;18.90;61.10
7900;DHT22;3995;50.856;4.404;2022-10-31T02:30:55;18.90;61.10
7900;DHT22;3995;50.856;4.404;2022-10-31T02:33:27;18.90;61.10
7900;DHT22;3995;50.856;4.404;2022-10-31T02:36:03;18.80;61.00
7900;DHT22;3995;50.856;4.404;2022-10-31T02:38:40;18.80;61.00
7900;DHT22;3995;50.856;4.404;2022-10-31T02:41:16;18.80;61.00
7900;DHT22;3995;50.856;4.404;2022-10-31T02:43:52;18.80;61.10
7900;DHT22;3995;50.856;4.404;2022-10-31T02:46:27;18.80;61.30
7900;DHT22;3995;50.856;4.404;2022-10-31T02:49:01;18.70;61.20
7900;DHT22;3995;50.856;4.404;2022-10-31T02:51:31;18.70;61.30
7900;DHT22;3995;50.856;4.404;2022-10-31T02:53:58;18.70;61.40
7900;DHT22;3995;50.856;4.404;2022-10-31T02:56:25;18.60;61.20
7900;DHT22;3995;50.856;4.404;2022-10-31T02:58:55;18.70;61.30
7900;DHT22;3995;50.856;4.404;2022-10-31T03:01:39;18.60;61.30
7900;DHT22;3995;50.856;4.404;2022-10-31T03:04:32;18.70;61.20
7900;DHT22;3995;50.856;4.404;2022-10-31T03:07:08;18.70;61.20
7900;DHT22;3995;50.856;4.404;2022-10-31T03:09:44;18.60;61.30
7900;DHT22;3995;50.856;4.404;2022-10-31T03:12:15;18.60;61.40
7900;DHT22;3995;50.856;4.404;2022-10-31T03:14:50;18.60;62.10
7900;DHT22;3995;50.856;4.404;2022-10-31T03:17:24;18.60;61.30
7900;DHT22;3995;50.856;4.404;2022-10-31T03:19:54;18.60;61.30
7900;DHT22;3995;50.856;4.404;2022-10-31T03:22:24;18.60;61.30
7900;DHT22;3995;50.856;4.404;2022-10-31T03:24:53;18.60;61.30
7900;DHT22;3995;50.856;4.404;2022-10-31T03:27:24;18.50;61.10
7900;DHT22;3995;50.856;4.404;2022-10-31T03:29:54;18.50;61.20
7900;DHT22;3995;50.856;4.404;2022-10-31T03:32:25;18.50;61.20
7900;DHT22;3995;50.856;4.404;2022-10-31T03:34:57;18.50;61.20
7900;DHT22;3995;50.856;4.404;2022-10-31T03:37:27;18.50;61.20
7900;DHT22;3995;50.856;4.404;2022-10-31T03:39:57;18.50;61.30
7900;DHT22;3995;50.856;4.404;2022-10-31T03:42:28;18.40;61.20
7900;DHT22;3995;50.856;4.404;2022-10-31T03:44:59;18.50;61.40
7900;DHT22;3995;50.856;4.404;2022-10-31T03:47:31;18.40;61.30
7900;DHT22;3995;50.856;4.404;2022-10-31T03:50:06;18.50;61.40
7900;DHT22;3995;50.856;4.404;2022-10-31T03:52:37;18.40;61.30
7900;DHT22;3995;50.856;4.404;2022-10-31T03:55:09;18.40;61.30
7900;DHT22;3995;50.856;4.404;2022-10-31T03:57:43;18.40;61.20
7900;DHT22;3995;50.856;4.404;2022-10-31T04:00:14;18.40;61.20
7900;DHT22;3995;50.856;4.404;2022-10-31T04:02:47;18.40;61.30
7900;DHT22;3995;50.856;4.404;2022-10-31T04:05:18;18.40;61.30
7900;DHT22;3995;50.856;4.404;2022-10-31T04:07:47;18.40;61.30
7900;DHT22;3995;50.856;4.404;2022-10-31T04:10:17;18.30;61.10
7900;DHT22;3995;50.856;4.404;2022-10-31T04:12:49;18.30;61.00
7900;DHT22;3995;50.856;4.404;2022-10-31T04:15:19;18.30;60.80
7900;DHT22;3995;50.856;4.404;2022-10-31T04:17:50;18.30;61.00
7900;DHT22;3995;50.856;4.404;2022-10-31T04:20:29;18.30;61.00
7900;DHT22;3995;50.856;4.404;2022-10-31T04:22:56;18.30;61.20
7900;DHT22;3995;50.856;4.404;2022-10-31T04:25:24;18.30;61.30
7900;DHT22;3995;50.856;4.404;2022-10-31T04:27:51;18.30;61.30
7900;DHT22;3995;50.856;4.404;2022-10-31T04:30:18;18.30;61.40
7900;DHT22;3995;50.856;4.404;2022-10-31T04:32:47;18.30;61.40
7900;DHT22;3995;50.856;4.404;2022-10-31T04:35:14;18.30;61.30
7900;DHT22;3995;50.856;4.404;2022-10-31T04:37:41;18.30;61.30
7900;DHT22;3995;50.856;4.404;2022-10-31T04:40:10;18.20;61.20
7900;DHT22;3995;50.856;4.404;2022-10-31T04:42:37;18.30;61.40
7900;DHT22;3995;50.856;4.404;2022-10-31T04:45:05;18.30;61.40
7900;DHT22;3995;50.856;4.404;2022-10-31T04:47:36;18.20;61.30
7900;DHT22;3995;50.856;4.404;2022-10-31T04:50:05;18.20;61.30
7900;DHT22;3995;50.856;4.404;2022-10-31T04:52:38;18.20;61.30
7900;DHT22;3995;50.856;4.404;2022-10-31T04:55:06;18.20;61.40
7900;DHT22;3995;50.856;4.404;2022-10-31T04:57:40;18.20;61.30
7900;DHT22;3995;50.856;4.404;2022-10-31T05:00:08;18.20;61.40
7900;DHT22;3995;50.856;4.404;2022-10-31T05:02:43;18.20;61.50
7900;DHT22;3995;50.856;4.404;2022-10-31T05:05:12;18.20;61.40
7900;DHT22;3995;50.856;4.404;2022-10-31T05:07:40;18.20;61.50
7900;DHT22;3995;50.856;4.404;2022-10-31T05:10:08;18.10;61.50
7900;DHT22;3995;50.856;4.404;2022-10-31T05:12:36;18.10;61.70
7900;DHT22;3995;50.856;4.404;2022-10-31T05:15:03;18.10;61.70
7900;DHT22;3995;50.856;4.404;2022-10-31T05:17:31;18.20;61.90
7900;DHT22;3995;50.856;4.404;2022-10-31T05:19:58;18.20;61.90
7900;DHT22;3995;50.856;4.404;2022-10-31T05:22:27;18.10;61.90
7900;DHT22;3995;50.856;4.404;2022-10-31T05:24:55;18.20;62.00
7900;DHT22;3995;50.856;4.404;2022-10-31T05:27:22;18.20;62.00
7900;DHT22;3995;50.856;4.404;2022-10-31T05:29:49;18.20;62.00
7900;DHT22;3995;50.856;4.404;2022-10-31T05:32:16;18.20;62.10
7900;DHT22;3995;50.856;4.404;2022-10-31T05:34:43;18.20;62.10
7900;DHT22;3995;50.856;4.404;2022-10-31T05:37:11;18.20;62.10
7900;DHT22;3995;50.856;4.404;2022-10-31T05:39:39;18.20;62.10
7900;DHT22;3995;50.856;4.404;2022-10-31T05:42:07;18.20;62.70
7900;DHT22;3995;50.856;4.404;2022-10-31T05:44:34;18.20;62.00
7900;DHT22;3995;50.856;4.404;2022-10-31T05:47:01;18.20;62.70
7900;DHT22;3995;50.856;4.404;2022-10-31T05:49:28;18.20;62.10
7900;DHT22;3995;50.856;4.404;2022-10-31T05:51:56;18.20;62.10
7900;DHT22;3995;50.856;4.404;2022-10-31T05:54:23;18.20;62.10
7900;DHT22;3995;50.856;4.404;2022-10-31T05:56:52;18.20;62.20
7900;DHT22;3995;50.856;4.404;2022-10-31T05:59:19;18.20;62.20
7900;DHT22;3995;50.856;4.404;2022-10-31T06:01:46;18.20;62.30
7900;DHT22;3995;50.856;4.404;2022-10-31T06:04:13;18.20;62.30
7900;DHT22;3995;50.856;4.404;2022-10-31T06:06:40;18.20;62.30
7900;DHT22;3995;50.856;4.404;2022-10-31T06:09:07;18.20;62.40
7900;DHT22;3995;50.856;4.404;2022-10-31T06:11:35;18.20;62.30
7900;DHT22;3995;50.856;4.404;2022-10-31T06:14:03;18.20;62.30
7900;DHT22;3995;50.856;4.404;2022-10-31T06:16:30;18.20;62.30
7900;DHT22;3995;50.856;4.404;2022-10-31T06:18:57;18.20;62.30
7900;DHT22;3995;50.856;4.404;2022-10-31T06:21:24;18.20;62.30
7900;DHT22;3995;50.856;4.404;2022-10-31T06:23:52;18.20;62.40
7900;DHT22;3995;50.856;4.404;2022-10-31T06:26:18;18.20;62.40
7900;DHT22;3995;50.856;4.404;2022-10-31T06:28:45;18.20;62.30
7900;DHT22;3995;50.856;4.404;2022-10-31T06:31:14;18.20;62.40
7900;DHT22;3995;50.856;4.404;2022-10-31T06:33:41;18.30;62.40
7900;DHT22;3995;50.856;4.404;2022-10-31T06:36:09;18.30;62.40
7900;DHT22;3995;50.856;4.404;2022-10-31T06:38:36;18.30;62.40
7900;DHT22;3995;50.856;4.404;2022-10-31T06:41:04;18.30;62.40
7900;DHT22;3995;50.856;4.404;2022-10-31T06:43:32;18.20;62.30
7900;DHT22;3995;50.856;4.404;2022-10-31T06:46:02;18.30;62.40
7900;DHT22;3995;50.856;4.404;2022-10-31T06:48:31;18.30;62.40
7900;DHT22;3995;50.856;4.404;2022-10-31T06:50:58;18.20;62.30
7900;DHT22;3995;50.856;4.404;2022-10-31T06:53:25;18.20;62.30
7900;DHT22;3995;50.856;4.404;2022-10-31T06:55:52;18.30;62.40
7900;DHT22;3995;50.856;4.404;2022-10-31T06:58:19;18.30;63.10
7900;DHT22;3995;50.856;4.404;2022-10-31T07:00:47;18.20;62.40
7900;DHT22;3995;50.856;4.404;2022-10-31T07:03:15;18.20;62.40
7900;DHT22;3995;50.856;4.404;2022-10-31T07:05:43;18.30;62.50
7900;DHT22;3995;50.856;4.404;2022-10-31T07:08:12;18.30;62.50
7900;DHT22;3995;50.856;4.404;2022-10-31T07:10:40;18.20;62.50
7900;DHT22;3995;50.856;4.404;2022-10-31T07:13:11;18.30;62.60
7900;DHT22;3995;50.856;4.404;2022-10-31T07:15:41;18.30;62.70
7900;DHT22;3995;50.856;4.404;2022-10-31T07:18:10;18.30;62.80
7900;DHT22;3995;50.856;4.404;2022-10-31T07:20:38;18.30;63.00
7900;DHT22;3995;50.856;4.404;2022-10-31T07:23:08;18.30;63.00
7900;DHT22;3995;50.856;4.404;2022-10-31T07:25:35;18.30;63.20
7900;DHT22;3995;50.856;4.404;2022-10-31T07:28:03;18.30;63.30
7900;DHT22;3995;50.856;4.404;2022-10-31T07:30:30;18.30;63.40
7900;DHT22;3995;50.856;4.404;2022-10-31T07:32:57;18.30;63.40
7900;DHT22;3995;50.856;4.404;2022-10-31T07:35:26;18.30;63.50
7900;DHT22;3995;50.856;4.404;2022-10-31T07:37:54;18.30;63.50
7900;DHT22;3995;50.856;4.404;2022-10-31T07:40:23;18.40;63.70
7900;DHT22;3995;50.856;4.404;2022-10-31T07:42:52;18.40;63.60
7900;DHT22;3995;50.856;4.404;2022-10-31T07:45:20;18.40;63.70
7900;DHT22;3995;50.856;4.404;2022-10-31T07:47:49;18.40;63.80
7900;DHT22;3995;50.856;4.404;2022-10-31T07:50:17;18.40;63.70
7900;DHT22;3995;50.856;4.404;2022-10-31T07:52:45;18.40;63.70
7900;DHT22;3995;50.856;4.404;2022-10-31T07:55:13;18.40;63.70
7900;DHT22;3995;50.856;4.404;2022-10-31T07:57:42;18.40;63.50
7900;DHT22;3995;50.856;4.404;2022-10-31T08:00:10;18.50;63.70
7900;DHT22;3995;50.856;4.404;2022-10-31T08:02:37;18.50;63.80
7900;DHT22;3995;50.856;4.404;2022-10-31T08:05:05;18.50;63.80
7900;DHT22;3995;50.856;4.404;2022-10-31T08:07:36;18.50;63.80
7900;DHT22;3995;50.856;4.404;2022-10-31T08:10:04;18.50;63.80
7900;DHT22;3995;50.856;4.404;2022-10-31T08:12:31;18.50;63.90
7900;DHT22;3995;50.856;4.404;2022-10-31T08:15:00;18.50;63.80
7900;DHT22;3995;50.856;4.404;2022-10-31T08:17:27;18.60;63.90
7900;DHT22;3995;50.856;4.404;2022-10-31T08:19:55;18.60;63.90
7900;DHT22;3995;50.856;4.404;2022-10-31T08:22:22;18.60;63.80
7900;DHT22;3995;50.856;4.404;2022-10-31T08:24:49;18.60;63.90
7900;DHT22;3995;50.856;4.404;2022-10-31T08:27:17;18.60;63.90
7900;DHT22;3995;50.856;4.404;2022-10-31T08:29:45;18.60;63.90
7900;DHT22;3995;50.856;4.404;2022-10-31T08:32:13;18.60;63.90
7900;DHT22;3995;50.856;4.404;2022-10-31T08:34:41;18.70;63.90
7900;DHT22;3995;50.856;4.404;2022-10-31T08:37:08;18.70;64.00
7900;DHT22;3995;50.856;4.404;2022-10-31T08:39:35;18.70;64.00
7900;DHT22;3995;50.856;4.404;2022-10-31T08:42:03;18.70;64.00
7900;DHT22;3995;50.856;4.404;2022-10-31T08:44:30;18.70;64.00
7900;DHT22;3995;50.856;4.404;2022-10-31T08:46:57;18.70;64.10
7900;DHT22;3995;50.856;4.404;2022-10-31T08:49:26;18.70;64.20
7900;DHT22;3995;50.856;4.404;2022-10-31T08:51:54;18.70;64.20
7900;DHT22;3995;50.856;4.404;2022-10-31T08:54:21;18.80;64.50
7900;DHT22;3995;50.856;4.404;2022-10-31T08:56:54;18.80;64.50
7900;DHT22;3995;50.856;4.404;2022-10-31T08:59:21;18.80;64.50
7900;DHT22;3995;50.856;4.404;2022-10-31T09:01:49;18.80;64.50
7900;DHT22;3995;50.856;4.404;2022-10-31T09:04:16;18.80;64.50
7900;DHT22;3995;50.856;4.404;2022-10-31T09:06:45;18.80;64.50
7900;DHT22;3995;50.856;4.404;2022-10-31T09:09:12;18.80;64.50
7900;DHT22;3995;50.856;4.404;2022-10-31T09:11:39;18.80;64.50
7900;DHT22;3995;50.856;4.404;2022-10-31T09:14:07;18.80;64.70
7900;DHT22;3995;50.856;4.404;2022-10-31T09:16:34;18.80;64.70
7900;DHT22;3995;50.856;4.404;2022-10-31T09:19:02;18.80;64.80
7900;DHT22;3995;50.856;4.404;2022-10-31T09:21:29;18.80;64.80
7900;DHT22;3995;50.856;4.404;2022-10-31T09:23:58;18.80;64.90
7900;DHT22;3995;50.856;4.404;2022-10-31T09:26:25;18.80;64.90
7900;DHT22;3995;50.856;4.404;2022-10-31T09:28:52;18.80;64.90
7900;DHT22;3995;50.856;4.404;2022-10-31T09:31:19;18.80;64.90
7900;DHT22;3995;50.856;4.404;2022-10-31T09:33:47;18.80;64.90
7900;DHT22;3995;50.856;4.404;2022-10-31T09:36:14;18.80;64.90
7900;DHT22;3995;50.856;4.404;2022-10-31T09:38:41;18.80;64.90
7900;DHT22;3995;50.856;4.404;2022-10-31T09:41:19;18.80;64.90
7900;DHT22;3995;50.856;4.404;2022-10-31T09:43:56;18.90;64.80
7900;DHT22;3995;50.856;4.404;2022-10-31T09:46:30;18.90;65.10
7900;DHT22;3995;50.856;4.404;2022-10-31T09:49:32;18.90;65.00
7900;DHT22;3995;50.856;4.404;2022-10-31T09:52:03;19.00;64.80
7900;DHT22;3995;50.856;4.404;2022-10-31T09:54:35;18.90;65.10
7900;DHT22;3995;50.856;4.404;2022-10-31T09:57:06;18.90;65.10
7900;DHT22;3995;50.856;4.404;2022-10-31T09:59:40;18.90;64.90
7900;DHT22;3995;50.856;4.404;2022-10-31T10:02:13;19.00;64.90
7900;DHT22;3995;50.856;4.404;2022-10-31T10:04:48;19.00;64.80
7900;DHT22;3995;50.856;4.404;2022-10-31T10:07:22;19.00;64.80
7900;DHT22;3995;50.856;4.404;2022-10-31T10:09:52;19.00;64.90
7900;DHT22;3995;50.856;4.404;2022-10-31T10:12:30;19.00;64.90
7900;DHT22;3995;50.856;4.404;2022-10-31T10:15:16;19.10;64.80
7900;DHT22;3995;50.856;4.404;2022-10-31T10:17:51;19.10;64.70
7900;DHT22;3995;50.856;4.404;2022-10-31T10:20:29;19.10;64.90
7900;DHT22;3995;50.856;4.404;2022-10-31T10:23:22;19.10;64.60
7900;DHT22;3995;50.856;4.404;2022-10-31T10:25:53;19.20;64.80
7900;DHT22;3995;50.856;4.404;2022-10-31T10:28:30;19.20;64.80
7900;DHT22;3995;50.856;4.404;2022-10-31T10:31:06;19.20;64.80
7900;DHT22;3995;50.856;4.404;2022-10-31T10:33:36;19.20;64.80
7900;DHT22;3995;50.856;4.404;2022-10-31T10:36:09;19.20;64.90
7900;DHT22;3995;50.856;4.404;2022-10-31T10:38:39;19.20;64.90
7900;DHT22;3995;50.856;4.404;2022-10-31T10:41:14;19.30;64.90
7900;DHT22;3995;50.856;4.404;2022-10-31T10:43:44;19.20;64.70
7900;DHT22;3995;50.856;4.404;2022-10-31T10:46:19;19.20;64.70
7900;DHT22;3995;50.856;4.404;2022-10-31T10:49:17;19.30;64.90
7900;DHT22;3995;50.856;4.404;2022-10-31T10:51:46;19.30;65.00
7900;DHT22;3995;50.856;4.404;2022-10-31T10:54:39;19.30;65.00
7900;DHT22;3995;50.856;4.404;2022-10-31T10:57:19;19.30;64.70
7900;DHT22;3995;50.856;4.404;2022-10-31T10:59:51;19.30;64.90
7900;DHT22;3995;50.856;4.404;2022-10-31T11:02:19;19.30;65.10
7900;DHT22;3995;50.856;4.404;2022-10-31T11:04:50;19.30;65.20
7900;DHT22;3995;50.856;4.404;2022-10-31T11:07:18;19.30;65.40
7900;DHT22;3995;50.856;4.404;2022-10-31T11:09:46;19.30;65.40
7900;DHT22;3995;50.856;4.404;2022-10-31T11:12:19;19.30;65.50
7900;DHT22;3995;50.856;4.404;2022-10-31T11:14:51;19.40;65.60
7900;DHT22;3995;50.856;4.404;2022-10-31T11:17:25;19.40;65.70
7900;DHT22;3995;50.856;4.404;2022-10-31T11:20:22;19.40;65.60
7900;DHT22;3995;50.856;4.404;2022-10-31T11:23:01;19.50;65.60
7900;DHT22;3995;50.856;4.404;2022-10-31T11:25:29;19.50;65.70
7900;DHT22;3995;50.856;4.404;2022-10-31T11:28:00;19.40;65.60
7900;DHT22;3995;50.856;4.404;2022-10-31T11:30:29;19.50;65.70
7900;DHT22;3995;50.856;4.404;2022-10-31T11:32:56;19.50;65.50
7900;DHT22;3995;50.856;4.404;2022-10-31T11:35:25;19.50;65.40
7900;DHT22;3995;50.856;4.404;2022-10-31T11:37:54;19.50;65.30
7900;DHT22;3995;50.856;4.404;2022-10-31T11:40:25;19.50;65.10
7900;DHT22;3995;50.856;4.404;2022-10-31T11:42:55;19.50;65.20
7900;DHT22;3995;50.856;4.404;2022-10-31T11:45:40;19.60;65.80
7900;DHT22;3995;50.856;4.404;2022-10-31T11:48:16;19.60;65.00
7900;DHT22;3995;50.856;4.404;2022-10-31T11:50:50;19.60;65.10
7900;DHT22;3995;50.856;4.404;2022-10-31T11:53:20;19.60;65.20
7900;DHT22;3995;50.856;4.404;2022-10-31T11:56:04;19.60;65.30
7900;DHT22;3995;50.856;4.404;2022-10-31T11:58:31;19.70;65.20
7900;DHT22;3995;50.856;4.404;2022-10-31T12:01:00;19.60;65.10
7900;DHT22;3995;50.856;4.404;2022-10-31T12:03:33;19.70;65.10
7900;DHT22;3995;50.856;4.404;2022-10-31T12:06:08;19.70;65.00
7900;DHT22;3995;50.856;4.404;2022-10-31T12:08:39;19.70;65.00
7900;DHT22;3995;50.856;4.404;2022-10-31T12:11:27;19.70;65.00
7900;DHT22;3995;50.856;4.404;2022-10-31T12:14:08;19.70;65.00
7900;DHT22;3995;50.856;4.404;2022-10-31T12:16:45;19.80;65.10
7900;DHT22;3995;50.856;4.404;2022-10-31T12:19:24;19.70;65.20
7900;DHT22;3995;50.856;4.404;2022-10-31T12:22:03;19.80;66.00
7900;DHT22;3995;50.856;4.404;2022-10-31T12:24:42;19.80;65.30
7900;DHT22;3995;50.856;4.404;2022-10-31T12:27:20;19.80;65.40
7900;DHT22;3995;50.856;4.404;2022-10-31T12:30:02;19.80;65.30
7900;DHT22;3995;50.856;4.404;2022-10-31T12:32:41;19.80;65.20
7900;DHT22;3995;50.856;4.404;2022-10-31T12:35:31;19.80;65.30
7900;DHT22;3995;50.856;4.404;2022-10-31T12:38:23;19.80;65.20
7900;DHT22;3995;50.856;4.404;2022-10-31T12:41:12;19.80;65.10
7900;DHT22;3995;50.856;4.404;2022-10-31T12:43:46;19.80;65.30
7900;DHT22;3995;50.856;4.404;2022-10-31T12:46:24;19.80;65.50
7900;DHT22;3995;50.856;4.404;2022-10-31T12:49:10;19.80;65.10
7900;DHT22;3995;50.856;4.404;2022-10-31T12:51:49;19.80;64.90
7900;DHT22;3995;50.856;4.404;2022-10-31T12:54:30;19.80;65.00
7900;DHT22;3995;50.856;4.404;2022-10-31T12:57:06;19.90;65.00
7900;DHT22;3995;50.856;4.404;2022-10-31T12:59:40;19.90;64.90
7900;DHT22;3995;50.856;4.404;2022-10-31T13:02:15;19.90;64.90
7900;DHT22;3995;50.856;4.404;2022-10-31T13:04:49;19.90;64.80
7900;DHT22;3995;50.856;4.404;2022-10-31T13:07:22;19.90;64.60
7900;DHT22;3995;50.856;4.404;2022-10-31T13:09:56;19.90;64.60
7900;DHT22;3995;50.856;4.404;2022-10-31T13:12:27;19.90;64.50
7900;DHT22;3995;50.856;4.404;2022-10-31T13:14:58;19.90;64.40
7900;DHT22;3995;50.856;4.404;2022-10-31T13:17:30;19.90;64.30
7900;DHT22;3995;50.856;4.404;2022-10-31T13:20:13;19.90;64.40
7900;DHT22;3995;50.856;4.404;2022-10-31T13:22:44;20.00;64.30
7900;DHT22;3995;50.856;4.404;2022-10-31T13:25:15;19.90;64.20
7900;DHT22;3995;50.856;4.404;2022-10-31T13:27:48;19.90;64.00
7900;DHT22;3995;50.856;4.404;2022-10-31T13:30:18;19.90;63.90
7900;DHT22;3995;50.856;4.404;2022-10-31T13:32:48;19.90;63.90
7900;DHT22;3995;50.856;4.404;2022-10-31T13:35:26;19.90;63.80
7900;DHT22;3995;50.856;4.404;2022-10-31T13:38:21;20.00;63.90
7900;DHT22;3995;50.856;4.404;2022-10-31T13:40:53;20.00;63.70
7900;DHT22;3995;50.856;4.404;2022-10-31T13:43:28;19.90;63.70
7900;DHT22;3995;50.856;4.404;2022-10-31T13:45:58;19.90;63.80
7900;DHT22;3995;50.856;4.404;2022-10-31T13:48:37;19.90;63.90
7900;DHT22;3995;50.856;4.404;2022-10-31T13:51:09;20.00;63.80
7900;DHT22;3995;50.856;4.404;2022-10-31T13:53:39;19.90;63.90
7900;DHT22;3995;50.856;4.404;2022-10-31T13:56:19;20.00;64.00
7900;DHT22;3995;50.856;4.404;2022-10-31T13:59:17;20.00;63.90
7900;DHT22;3995;50.856;4.404;2022-10-31T14:01:47;20.00;63.90
7900;DHT22;3995;50.856;4.404;2022-10-31T14:04:16;19.90;64.10
7900;DHT22;3995;50.856;4.404;2022-10-31T14:06:52;20.00;64.10
7900;DHT22;3995;50.856;4.404;2022-10-31T14:09:24;20.00;63.90
7900;DHT22;3995;50.856;4.404;2022-10-31T14:11:52;20.00;63.50
7900;DHT22;3995;50.856;4.404;2022-10-31T14:14:20;20.00;63.50
7900;DHT22;3995;50.856;4.404;2022-10-31T14:16:54;20.00;63.30
7900;DHT22;3995;50.856;4.404;2022-10-31T14:19:22;20.00;63.20
7900;DHT22;3995;50.856;4.404;2022-10-31T14:21:51;20.00;63.30
7900;DHT22;3995;50.856;4.404;2022-10-31T14:24:35;20.00;63.10
7900;DHT22;3995;50.856;4.404;2022-10-31T14:29:46;20.00;63.10
7900;DHT22;3995;50.856;4.404;2022-10-31T14:32:20;20.00;63.00
7900;DHT22;3995;50.856;4.404;2022-10-31T14:34:53;20.10;62.60
7900;DHT22;3995;50.856;4.404;2022-10-31T14:37:34;20.10;62.40
7900;DHT22;3995;50.856;4.404;2022-10-31T14:40:16;20.10;62.20
7900;DHT22;3995;50.856;4.404;2022-10-31T14:43:26;20.00;62.20
7900;DHT22;3995;50.856;4.404;2022-10-31T14:46:00;20.10;62.10
7900;DHT22;3995;50.856;4.404;2022-10-31T14:48:43;20.00;62.10
7900;DHT22;3995;50.856;4.404;2022-10-31T14:51:15;20.10;62.20
7900;DHT22;3995;50.856;4.404;2022-10-31T14:53:46;20.00;61.90
7900;DHT22;3995;50.856;4.404;2022-10-31T14:56:20;20.00;61.80
7900;DHT22;3995;50.856;4.404;2022-10-31T14:58:47;20.00;61.80
7900;DHT22;3995;50.856;4.404;2022-10-31T15:01:23;20.00;61.90
7900;DHT22;3995;50.856;4.404;2022-10-31T15:03:52;20.10;61.90
7900;DHT22;3995;50.856;4.404;2022-10-31T15:06:21;20.00;61.90
7900;DHT22;3995;50.856;4.404;2022-10-31T15:08:52;20.10;62.20
7900;DHT22;3995;50.856;4.404;2022-10-31T15:11:21;20.10;62.10
7900;DHT22;3995;50.856;4.404;2022-10-31T15:13:50;20.10;62.20
7900;DHT22;3995;50.856;4.404;2022-10-31T15:16:21;20.10;62.20
7900;DHT22;3995;50.856;4.404;2022-10-31T15:18:54;20.10;62.30
7900;DHT22;3995;50.856;4.404;2022-10-31T15:21:24;20.10;62.40
7900;DHT22;3995;50.856;4.404;2022-10-31T15:23:56;20.00;62.50
7900;DHT22;3995;50.856;4.404;2022-10-31T15:26:28;20.10;62.80
7900;DHT22;3995;50.856;4.404;2022-10-31T15:28:58;20.00;62.70
7900;DHT22;3995;50.856;4.404;2022-10-31T15:31:26;20.00;62.80
7900;DHT22;3995;50.856;4.404;2022-10-31T15:33:53;20.00;62.90
7900;DHT22;3995;50.856;4.404;2022-10-31T15:36:24;20.10;63.10
7900;DHT22;3995;50.856;4.404;2022-10-31T15:38:51;20.00;63.10
7900;DHT22;3995;50.856;4.404;2022-10-31T15:41:26;20.00;63.20
7900;DHT22;3995;50.856;4.404;2022-10-31T15:43:59;20.00;63.30
7900;DHT22;3995;50.856;4.404;2022-10-31T15:46:27;20.00;63.40
7900;DHT22;3995;50.856;4.404;2022-10-31T15:48:55;20.00;63.50
7900;DHT22;3995;50.856;4.404;2022-10-31T15:51:27;20.00;63.60
7900;DHT22;3995;50.856;4.404;2022-10-31T15:53:55;20.00;63.70
7900;DHT22;3995;50.856;4.404;2022-10-31T15:56:26;20.00;63.70
7900;DHT22;3995;50.856;4.404;2022-10-31T15:58:56;20.00;63.80
7900;DHT22;3995;50.856;4.404;2022-10-31T16:01:25;20.00;63.90
7900;DHT22;3995;50.856;4.404;2022-10-31T16:04:00;20.00;64.00
7900;DHT22;3995;50.856;4.404;2022-10-31T16:06:28;20.00;64.10
7900;DHT22;3995;50.856;4.404;2022-10-31T16:08:56;20.00;64.30
7900;DHT22;3995;50.856;4.404;2022-10-31T16:11:32;20.00;64.30
7900;DHT22;3995;50.856;4.404;2022-10-31T16:14:03;20.00;65.00
7900;DHT22;3995;50.856;4.404;2022-10-31T16:16:32;20.00;64.40
7900;DHT22;3995;50.856;4.404;2022-10-31T16:19:01;19.90;64.40
7900;DHT22;3995;50.856;4.404;2022-10-31T16:21:31;19.90;64.40
7900;DHT22;3995;50.856;4.404;2022-10-31T16:24:01;19.90;64.50
7900;DHT22;3995;50.856;4.404;2022-10-31T16:26:31;19.90;64.50
7900;DHT22;3995;50.856;4.404;2022-10-31T16:28:58;19.90;64.60
7900;DHT22;3995;50.856;4.404;2022-10-31T16:31:29;19.90;64.70